Terminal Aerodrome Forecast
Issued by NWS Shreveport, LA

Home | Current Version | Previous Version | Text Only | Print | Product List | Glossary On
Versions: 1 2 3 4 5 6 7 8 9 10 11 12 13 14 15 16 17 18 19 20
000
FTUS44 KSHV 192323
TAFMLU
TAF
KMLU 192323Z 2000/2024 21011G18KT P6SM SCT040
     FM200200 23008KT P6SM VCTS BKN040CB
     FM200900 26008KT P6SM SCT050
     FM201500 32012KT P6SM SKC=

USA.gov is the U.S. government's official web portal to all federal, state and local government web resources and services.